Terminal Aerodrome Forecast
Issued by NWS

Home | Current Version | Previous Version | Graphics & Text | Print | Product List | Glossary On
Versions: 1 2 3 4 5 6 7 8 9 10 11 12 13 14 15 16
033
FTUS43 KSGF 131120
TAFJLN
TAF
KJLN 131120Z 1312/1412 20016KT P6SM SKC
     FM131500 25016G24KT P6SM SKC
     FM132100 30012KT P6SM SKC
     FM140400 35006KT P6SM SKC=

USA.gov is the U.S. government's official web portal to all federal, state and local government web resources and services.